Time;durP1;ratioP1;P1;durP2;ratioP2;P2;SDS_P1;SDS_P2;PMS_P1;PMS_P2;Temp;Humidity;BMP_temperature;BMP_pressure;BME280_temperature;BME280_humidity;BME280_pressure;Samples;Min_cycle;Max_cycle;Signal;HPM_P1;HPM_P2
2022/01/27 00:05:05;;;;;;;82.95;30.00;;;;;;;4.75;56.64;101659.09;5032746;28;20084;-70
2022/01/27 00:07:35;;;;;;;88.50;29.88;;;;;;;5.41;55.08;101656.53;5032585;28;20091;-70
2022/01/27 00:10:16;;;;;;;80.07;29.33;;;;;;;5.43;54.98;101654.63;5032153;28;20072;-70
2022/01/27 00:12:43;;;;;;;70.83;29.00;;;;;;;5.73;54.15;101641.00;5031796;28;20084;-70
2022/01/27 00:15:12;;;;;;;75.40;29.27;;;;;;;5.22;55.83;101643.63;5030563;28;20367;-70
2022/01/27 00:17:44;;;;;;;76.57;30.98;;;;;;;4.76;57.35;101647.53;5032300;28;20099;-70
2022/01/27 00:20:13;;;;;;;76.93;29.70;;;;;;;4.72;57.18;101639.81;5032550;28;20458;-70
2022/01/27 00:22:40;;;;;;;82.60;30.90;;;;;;;5.10;56.36;101639.97;5030821;28;20049;-70
2022/01/27 00:25:07;;;;;;;73.28;28.83;;;;;;;5.19;56.38;101628.72;5032158;28;20132;-70
2022/01/27 00:27:34;;;;;;;70.50;28.90;;;;;;;4.54;57.85;101620.63;5032621;28;20049;-70
2022/01/27 00:30:03;;;;;;;70.65;28.63;;;;;;;4.79;58.02;101626.03;5031949;28;20120;-70
2022/01/27 00:32:31;;;;;;;74.13;29.48;;;;;;;4.92;56.64;101622.56;5031408;28;20533;-70
2022/01/27 00:34:59;;;;;;;71.20;27.05;;;;;;;4.79;57.79;101618.06;5031023;28;20466;-70
2022/01/27 00:37:27;;;;;;;79.00;28.67;;;;;;;4.54;58.37;101620.63;5031749;28;20402;-70
2022/01/27 00:39:53;;;;;;;66.72;27.83;;;;;;;4.48;58.40;101608.56;5031866;28;20076;-70
2022/01/27 00:42:20;;;;;;;68.72;27.17;;;;;;;4.82;57.75;101599.25;5032090;28;20045;-70
2022/01/27 00:44:47;;;;;;;66.28;25.85;;;;;;;4.16;59.42;101594.66;5030983;28;20073;-69
2022/01/27 00:47:13;;;;;;;68.88;28.55;;;;;;;4.75;58.16;101582.00;5031653;28;20041;-69
2022/01/27 00:49:40;;;;;;;68.47;26.33;;;;;;;4.85;57.71;101581.41;5031827;28;20137;-70
2022/01/27 00:52:11;;;;;;;69.85;25.88;;;;;;;4.64;57.29;101565.06;5031978;28;20136;-70
2022/01/27 00:54:37;;;;;;;67.28;26.55;;;;;;;4.57;58.36;101561.94;5031165;28;20049;-70
2022/01/27 00:57:36;;;;;;;63.92;25.17;;;;;;;4.43;58.14;101559.34;5032391;28;20386;-70
2022/01/27 01:00:05;;;;;;;61.40;24.50;;;;;;;4.13;58.69;101564.78;5030979;28;20064;-71
2022/01/27 01:02:49;;;;;;;63.65;25.77;;;;;;;4.58;58.02;101558.34;5034899;28;20114;-70
2022/01/27 01:05:56;;;;;;;57.75;24.33;;;;;;;4.85;57.09;101560.13;5051871;28;20126;-70
2022/01/27 01:11:40;;;;;;;61.95;24.63;;;;;;;4.68;57.71;101547.94;5047019;28;20068;-71
2022/01/27 01:14:27;;;;;;;62.22;23.27;;;;;;;4.40;58.19;101538.28;5051977;28;20065;-71
2022/01/27 01:17:06;;;;;;;60.40;24.05;;;;;;;4.44;58.02;101539.78;5051458;28;20049;-71
2022/01/27 01:32:54;;;;;;;52.00;22.00;;;;;;;5.27;55.63;101540.41;5051217;28;20131;-71
2022/01/27 01:35:28;;;;;;;48.67;20.10;;;;;;;5.08;55.99;101537.31;5050894;28;20096;-71
2022/01/27 01:37:56;;;;;;;48.58;22.10;;;;;;;4.76;56.80;101540.31;5051216;28;20068;-71
2022/01/27 01:40:23;;;;;;;50.13;20.90;;;;;;;4.48;57.57;101528.84;5051292;28;20592;-71
2022/01/27 01:42:50;;;;;;;49.45;20.33;;;;;;;5.26;55.73;101533.38;5051731;28;20481;-71
2022/01/27 01:45:19;;;;;;;47.13;20.80;;;;;;;5.15;55.77;101525.28;5051397;28;20037;-70
2022/01/27 01:47:47;;;;;;;51.78;21.20;;;;;;;5.05;55.98;101519.75;5051188;28;20045;-70
2022/01/27 01:50:14;;;;;;;46.85;19.30;;;;;;;4.86;56.45;101517.47;5050668;28;20049;-70
2022/01/27 01:52:41;;;;;;;53.22;20.50;;;;;;;4.92;56.35;101522.38;5051779;28;20106;-71
2022/01/27 01:55:10;;;;;;;44.90;19.20;;;;;;;5.10;55.94;101511.44;5051987;28;20056;-70
2022/01/27 01:57:37;;;;;;;42.78;18.67;;;;;;;5.19;56.08;101516.13;5051705;28;20068;-70
2022/01/27 02:00:08;;;;;;;51.45;20.42;;;;;;;4.76;56.59;101497.78;5052532;28;20049;-70
2022/01/27 02:02:34;;;;;;;42.70;18.63;;;;;;;4.62;56.75;101482.75;5050917;28;20078;-70
2022/01/27 02:05:01;;;;;;;44.20;19.83;;;;;;;4.90;56.64;101475.56;5055137;28;20496;-71
2022/01/27 02:07:53;;;;;;;44.67;18.48;;;;;;;4.95;55.98;101470.81;5058780;28;20037;-70
2022/01/27 02:19:14;;;;;;;35.10;16.92;;;;;;;4.80;56.47;101446.13;4992859;28;20042;-71
2022/01/27 02:21:46;;;;;;;36.22;17.67;;;;;;;4.95;55.60;101439.75;4993480;28;20050;-71
2022/01/27 02:24:13;;;;;;;42.45;18.90;;;;;;;5.09;55.70;101430.81;4993676;28;20121;-71
2022/01/27 02:26:41;;;;;;;36.03;18.50;;;;;;;5.14;55.30;101435.78;4992897;28;20105;-71
2022/01/27 02:29:08;;;;;;;38.28;17.58;;;;;;;4.94;55.97;101426.56;4992861;28;20097;-71
2022/01/27 02:31:36;;;;;;;42.00;19.60;;;;;;;4.90;55.77;101414.41;4993552;28;20070;-71
2022/01/27 02:34:05;;;;;;;40.58;17.92;;;;;;;4.67;56.55;101421.34;4993394;28;20053;-71
2022/01/27 02:36:35;;;;;;;36.47;18.10;;;;;;;5.11;55.25;101407.63;4993228;28;20490;-71
2022/01/27 02:39:06;;;;;;;36.58;18.27;;;;;;;4.56;56.96;101406.13;4993401;28;20125;-71
2022/01/27 02:41:44;;;;;;;40.65;18.23;;;;;;;4.91;55.71;101405.50;4993015;28;20479;-70
2022/01/27 02:44:24;;;;;;;42.38;18.77;;;;;;;4.81;56.09;101389.34;4992902;28;20405;-70
2022/01/27 02:46:51;;;;;;;37.22;18.48;;;;;;;5.41;54.61;101396.59;5014506;28;20064;-70
2022/01/27 02:49:18;;;;;;;47.30;18.40;;;;;;;4.80;56.42;101398.28;5074305;28;20067;-71
2022/01/27 02:51:45;;;;;;;39.90;18.13;;;;;;;5.19;55.13;101402.59;5073539;28;20045;-71
2022/01/27 02:54:12;;;;;;;32.70;16.40;;;;;;;5.10;55.36;101392.59;5070269;28;20481;-71
2022/01/27 02:56:43;;;;;;;36.03;17.50;;;;;;;5.02;55.34;101392.31;5054004;28;20464;-71
2022/01/27 02:59:11;;;;;;;39.00;17.45;;;;;;;5.35;54.58;101394.41;5054524;28;20045;-71
2022/01/27 03:01:37;;;;;;;35.45;17.92;;;;;;;5.08;55.81;101389.22;5054386;28;20485;-71
2022/01/27 03:04:04;;;;;;;36.55;17.10;;;;;;;4.94;55.73;101390.19;5053959;28;20452;-70
2022/01/27 03:06:31;;;;;;;38.55;16.95;;;;;;;4.84;56.48;101383.81;5053800;28;20044;-70
2022/01/27 03:08:58;;;;;;;36.13;17.92;;;;;;;4.72;56.67;101366.03;5053981;28;20168;-71
2022/01/27 03:11:36;;;;;;;36.80;16.83;;;;;;;4.87;56.23;101356.13;5053746;28;20045;-71
2022/01/27 03:14:03;;;;;;;36.30;16.88;;;;;;;4.28;57.57;101356.63;5047651;28;20048;-71
2022/01/27 03:16:30;;;;;;;36.17;17.45;;;;;;;4.81;56.23;101352.97;5053751;28;21131;-70
2022/01/27 03:18:56;;;;;;;35.75;17.20;;;;;;;4.74;56.64;101353.50;5035766;28;20069;-70
2022/01/27 03:21:23;;;;;;;36.08;18.00;;;;;;;5.00;56.04;101341.03;5053605;28;20143;-71
2022/01/27 03:23:50;;;;;;;34.42;16.92;;;;;;;4.61;56.78;101334.91;5052055;28;20056;-71
2022/01/27 03:26:16;;;;;;;38.33;17.23;;;;;;;4.71;56.76;101335.13;5053702;28;20047;-71
2022/01/27 03:28:43;;;;;;;32.90;16.80;;;;;;;5.00;56.45;101327.72;5052824;28;20055;-71
2022/01/27 03:31:09;;;;;;;34.78;16.85;;;;;;;4.52;56.97;101324.91;5054389;28;20052;-71
2022/01/27 03:33:39;;;;;;;38.53;17.90;;;;;;;4.82;56.99;101321.91;5053589;28;20049;-70
2022/01/27 03:36:06;;;;;;;34.85;16.45;;;;;;;4.64;57.00;101317.91;5053127;28;20429;-71
2022/01/27 03:38:32;;;;;;;34.15;17.55;;;;;;;5.26;55.53;101316.06;5053500;28;20096;-71
2022/01/27 03:41:04;;;;;;;37.45;16.70;;;;;;;4.81;56.85;101312.25;5053019;28;20049;-71
2022/01/27 03:43:30;;;;;;;34.20;16.60;;;;;;;4.88;56.83;101299.38;5053186;28;20114;-71
2022/01/27 03:45:56;;;;;;;36.50;16.92;;;;;;;4.60;56.95;101301.31;5052857;28;20445;-71
2022/01/27 03:48:23;;;;;;;32.58;16.98;;;;;;;5.01;56.55;101300.19;5053022;28;20068;-71
2022/01/27 03:50:50;;;;;;;35.60;16.40;;;;;;;5.05;56.30;101307.84;5052821;28;20091;-71
2022/01/27 03:53:16;;;;;;;36.00;16.60;;;;;;;5.16;56.15;101299.09;5052793;28;20128;-71
2022/01/27 03:55:43;;;;;;;30.70;16.17;;;;;;;4.72;57.46;101297.78;5052923;28;20075;-71
2022/01/27 03:58:10;;;;;;;34.88;17.73;;;;;;;4.51;58.23;101291.31;5052533;28;20045;-71
2022/01/27 04:00:37;;;;;;;36.88;17.88;;;;;;;4.82;57.28;101279.38;5052459;28;20531;-71
2022/01/27 04:03:10;;;;;;;35.95;16.33;;;;;;;5.04;57.04;101276.91;5034908;28;20118;-71
2022/01/27 04:05:41;;;;;;;32.33;17.23;;;;;;;4.84;57.74;101284.59;5053208;28;20401;-71
2022/01/27 04:08:10;;;;;;;34.03;16.75;;;;;;;5.04;56.72;101278.72;5052988;28;20071;-70
2022/01/27 04:10:38;;;;;;;37.80;16.08;;;;;;;4.78;57.54;101281.41;5052334;28;20084;-70
2022/01/27 04:13:06;;;;;;;32.72;15.45;;;;;;;5.08;56.72;101276.69;5052238;28;20457;-70
2022/01/27 04:15:34;;;;;;;29.33;15.90;;;;;;;5.11;56.65;101277.31;5052040;28;20477;-70
2022/01/27 04:18:00;;;;;;;30.35;15.48;;;;;;;4.86;57.44;101286.16;5052470;28;20048;-70
2022/01/27 04:20:27;;;;;;;32.53;14.98;;;;;;;5.02;56.77;101277.94;5052041;28;20095;-70
2022/01/27 04:22:54;;;;;;;27.20;14.90;;;;;;;5.07;56.07;101277.63;5052998;28;20049;-70
2022/01/27 04:25:20;;;;;;;30.25;14.57;;;;;;;5.41;55.33;101271.53;5051724;28;20072;-71
2022/01/27 04:27:51;;;;;;;25.92;14.73;;;;;;;5.13;55.67;101272.69;5051971;28;20219;-71
2022/01/27 04:30:21;;;;;;;25.15;12.43;;;;;;;4.96;56.48;101265.09;5052176;28;20099;-70
2022/01/27 04:32:52;;;;;;;23.85;12.88;;;;;;;5.04;55.67;101265.41;5051965;28;20083;-71
2022/01/27 04:35:21;;;;;;;24.30;13.52;;;;;;;4.77;56.57;101261.09;5051422;28;20167;-70
2022/01/27 04:37:58;;;;;;;26.50;13.45;;;;;;;4.81;56.03;101254.59;5051274;28;20106;-70
2022/01/27 04:40:30;;;;;;;24.55;12.13;;;;;;;5.26;55.21;101257.56;5052585;28;20041;-70
2022/01/27 04:43:08;;;;;;;21.70;11.93;;;;;;;5.16;55.22;101248.53;5051993;28;20124;-70
2022/01/27 04:45:45;;;;;;;20.25;11.18;;;;;;;5.14;55.21;101254.94;5050328;28;20116;-70
2022/01/27 04:48:15;;;;;;;24.38;10.85;;;;;;;4.74;56.24;101250.69;5052002;28;20469;-70
2022/01/27 04:50:42;;;;;;;20.52;11.15;;;;;;;4.68;55.77;101247.63;5051340;28;20081;-70
2022/01/27 04:53:16;;;;;;;17.92;10.88;;;;;;;5.36;54.26;101251.56;5052612;28;20060;-70
2022/01/27 04:55:42;;;;;;;21.55;10.93;;;;;;;5.38;54.63;101260.25;5051492;28;20049;-70
2022/01/27 04:58:14;;;;;;;18.02;10.02;;;;;;;5.03;55.09;101247.72;5034454;28;20040;-70
2022/01/27 05:00:41;;;;;;;;;;;;;;;4.74;55.94;101240.06;5052711;28;20048;-70
2022/01/27 05:03:21;;;;;;;20.27;11.18;;;;;;;4.75;55.43;101227.63;5052214;28;20012;-70
2022/01/27 05:05:47;;;;;;;15.93;9.30;;;;;;;4.80;55.80;101220.16;5051143;28;20106;-70
2022/01/27 05:08:18;;;;;;;15.95;9.52;;;;;;;4.70;55.62;101221.78;5051748;28;20437;-70
2022/01/27 05:10:56;;;;;;;18.58;10.07;;;;;;;4.62;55.86;101184.25;5051795;28;20496;-70
2022/01/27 05:13:26;;;;;;;18.23;9.57;;;;;;;5.17;54.43;101210.34;5051183;28;20140;-70
2022/01/27 05:15:52;;;;;;;19.23;9.80;;;;;;;5.18;54.13;101205.84;5050855;28;20127;-70
2022/01/27 05:18:20;;;;;;;18.95;9.65;;;;;;;5.34;53.35;101202.94;5050682;28;20060;-70
2022/01/27 05:20:47;;;;;;;18.77;9.93;;;;;;;4.97;54.62;101190.56;5051818;28;20065;-70
2022/01/27 05:23:14;;;;;;;23.27;10.20;;;;;;;5.14;53.83;101173.31;5050785;28;20086;-70
2022/01/27 05:25:41;;;;;;;16.88;9.55;;;;;;;4.87;54.47;101181.56;5051715;28;20095;-70
2022/01/27 05:28:08;;;;;;;17.58;10.07;;;;;;;4.78;54.44;101168.91;5051677;28;20054;-70
2022/01/27 05:30:35;;;;;;;20.27;10.15;;;;;;;4.97;53.79;101169.28;5069250;28;20455;-70
2022/01/27 05:33:01;;;;;;;19.83;10.52;;;;;;;5.25;53.25;101165.41;5071239;28;20056;-70
2022/01/27 05:35:28;;;;;;;17.45;10.18;;;;;;;4.92;54.37;101146.63;5071359;28;20072;-70
2022/01/27 05:37:55;;;;;;;17.75;10.00;;;;;;;5.23;53.39;101134.56;5071203;28;20546;-70
2022/01/27 05:40:22;;;;;;;17.63;9.43;;;;;;;4.52;54.96;101130.94;5071464;28;20106;-70
2022/01/27 05:42:48;;;;;;;17.58;9.48;;;;;;;5.12;53.28;101127.41;5053566;28;20086;-70
2022/01/27 05:45:15;;;;;;;17.75;10.45;;;;;;;5.23;53.12;101135.41;5071462;28;20049;-70
2022/01/27 05:47:41;;;;;;;20.40;11.05;;;;;;;4.86;53.70;101123.16;5073811;28;20484;-71
2022/01/27 05:50:08;;;;;;;15.52;10.15;;;;;;;4.82;54.03;101128.69;5075170;28;20131;-71
2022/01/27 05:52:34;;;;;;;20.23;11.15;;;;;;;4.96;53.98;101137.47;5075132;28;20072;-70
2022/01/27 05:55:01;;;;;;;22.15;12.48;;;;;;;5.57;51.88;101146.16;5075364;28;20078;-70
2022/01/27 05:57:27;;;;;;;21.80;12.57;;;;;;;5.23;53.19;101137.22;5075488;28;20044;-70
2022/01/27 05:59:55;;;;;;;20.95;11.00;;;;;;;5.03;53.83;101128.91;5042809;28;20498;-70
2022/01/27 06:02:22;;;;;;;18.88;12.00;;;;;;;4.90;54.23;101133.47;5055274;28;20048;-70
2022/01/27 06:04:48;;;;;;;19.40;10.93;;;;;;;5.59;52.34;101133.56;5065028;28;20132;-70
2022/01/27 06:07:15;;;;;;;17.90;11.32;;;;;;;4.96;53.91;101126.84;5055787;28;20103;-70
2022/01/27 06:09:41;;;;;;;21.65;12.07;;;;;;;4.94;54.42;101116.31;5074461;28;20147;-71
2022/01/27 06:12:08;;;;;;;20.73;11.57;;;;;;;4.92;54.49;101120.91;5074608;28;20041;-71
2022/01/27 06:14:35;;;;;;;20.17;11.95;;;;;;;4.89;54.52;101102.50;5074687;28;20562;-70
2022/01/27 06:17:01;;;;;;;24.00;13.00;;;;;;;5.02;54.67;101099.78;5074387;28;20044;-70
2022/01/27 06:19:28;;;;;;;26.88;13.18;;;;;;;4.58;55.39;101101.25;5074036;28;20067;-70
2022/01/27 06:21:55;;;;;;;26.50;13.18;;;;;;;4.88;54.79;101103.47;5063434;28;20136;-70
2022/01/27 06:24:22;;;;;;;27.02;14.25;;;;;;;4.56;56.12;101095.22;5053852;28;20041;-70
2022/01/27 06:26:48;;;;;;;25.30;14.40;;;;;;;4.73;55.02;101108.13;5054151;28;20091;-69
2022/01/27 06:29:15;;;;;;;26.45;14.95;;;;;;;4.91;55.12;101107.72;5053954;28;20041;-69
2022/01/27 06:31:41;;;;;;;26.48;15.10;;;;;;;4.88;55.44;101098.16;5056270;28;20072;-69
2022/01/27 06:34:08;;;;;;;28.42;14.68;;;;;;;5.12;55.10;101105.28;5071675;28;20092;-69
2022/01/27 06:36:34;;;;;;;32.95;16.00;;;;;;;4.92;54.81;101099.63;5056841;28;20460;-69
2022/01/27 06:39:01;;;;;;;29.80;16.77;;;;;;;5.05;55.03;101096.91;5074136;28;20071;-69
2022/01/27 06:41:27;;;;;;;28.75;16.02;;;;;;;4.64;55.51;101079.56;5075094;28;20531;-69
2022/01/27 06:43:54;;;;;;;31.27;16.83;;;;;;;4.74;56.19;101075.25;5074100;28;20131;-69
2022/01/27 06:46:20;;;;;;;29.23;16.92;;;;;;;4.90;55.69;101074.09;5070463;28;20048;-70
2022/01/27 06:48:47;;;;;;;33.78;17.38;;;;;;;5.16;55.50;101080.97;5069800;28;20052;-70
2022/01/27 06:51:14;;;;;;;29.38;17.10;;;;;;;4.82;56.28;101083.50;5072378;28;20068;-69
2022/01/27 06:53:41;;;;;;;37.75;18.70;;;;;;;4.57;56.87;101080.97;5073699;28;20112;-70
2022/01/27 06:56:07;;;;;;;32.40;18.92;;;;;;;5.25;54.95;101082.09;5073941;28;20220;-68
2022/01/27 06:58:36;;;;;;;32.00;18.98;;;;;;;5.10;55.07;101081.44;5054900;28;20132;-69
2022/01/27 07:01:02;;;;;;;31.73;19.40;;;;;;;4.51;56.46;101081.41;5074090;28;20072;-69
2022/01/27 07:03:33;;;;;;;38.00;20.42;;;;;;;5.00;55.20;101077.78;5073201;28;20063;-69
2022/01/27 07:06:00;;;;;;;38.78;20.70;;;;;;;4.95;55.31;101087.91;5073914;28;20052;-68
2022/01/27 07:08:26;;;;;;;39.50;21.25;;;;;;;5.41;54.18;101073.78;5073978;28;20132;-69
2022/01/27 07:10:53;;;;;;;41.47;21.58;;;;;;;5.39;53.96;101070.41;5073313;28;20065;-68
2022/01/27 07:13:19;;;;;;;40.85;21.98;;;;;;;5.18;54.11;101073.75;5072613;28;20068;-69
2022/01/27 07:15:45;;;;;;;44.75;22.83;;;;;;;4.75;55.04;101076.94;5073176;28;20102;-68
2022/01/27 07:18:12;;;;;;;45.15;24.48;;;;;;;4.88;54.54;101062.75;5069712;28;20044;-69
2022/01/27 07:20:38;;;;;;;56.55;25.85;;;;;;;5.13;54.12;101062.59;5061458;28;20133;-69
2022/01/27 07:23:08;;;;;;;46.67;25.20;;;;;;;5.37;52.80;101062.53;5052955;28;20080;-70
2022/01/27 07:25:35;;;;;;;49.47;27.02;;;;;;;4.69;54.75;101071.25;5053320;28;20053;-69
2022/01/27 07:28:02;;;;;;;52.63;28.02;;;;;;;5.08;53.72;101069.25;5052951;28;20084;-69
2022/01/27 07:30:28;;;;;;;58.63;28.77;;;;;;;5.08;53.66;101059.44;5053473;28;20041;-70
2022/01/27 07:32:55;;;;;;;60.97;30.67;;;;;;;5.58;52.21;101060.03;5053059;28;20131;-69
2022/01/27 07:35:21;;;;;;;49.40;27.58;;;;;;;5.19;52.98;101062.13;5053281;28;20123;-68
2022/01/27 07:37:48;;;;;;;53.08;29.13;;;;;;;4.87;53.70;101059.25;5053223;28;20462;-68
2022/01/27 07:40:14;;;;;;;57.42;29.17;;;;;;;5.05;53.41;101052.53;5052543;28;20049;-68
2022/01/27 07:42:41;;;;;;;54.85;29.25;;;;;;;4.68;53.73;101051.78;5052541;28;20072;-68
2022/01/27 07:45:08;;;;;;;56.58;29.83;;;;;;;4.90;53.70;101043.06;5052922;28;20049;-70
2022/01/27 07:47:34;;;;;;;57.47;30.13;;;;;;;5.19;52.78;101045.34;5052848;28;20094;-69
2022/01/27 07:50:01;;;;;;;56.60;30.55;;;;;;;4.55;53.93;101041.22;5055415;28;20069;-69
2022/01/27 07:52:27;;;;;;;57.47;29.92;;;;;;;4.88;53.25;101034.34;5055734;28;20385;-70
2022/01/27 07:54:54;;;;;;;59.90;31.52;;;;;;;5.31;52.66;101025.75;5053128;28;20061;-70
2022/01/27 07:57:20;;;;;;;61.38;30.42;;;;;;;4.56;54.49;101023.50;5059176;28;20040;-70
2022/01/27 07:59:47;;;;;;;60.38;31.27;;;;;;;4.97;53.57;101020.38;5057662;28;20064;-69
2022/01/27 08:02:13;;;;;;;74.40;32.67;;;;;;;4.90;53.67;101031.56;5068845;28;20060;-69
2022/01/27 08:04:41;;;;;;;60.58;30.15;;;;;;;4.52;53.82;101020.22;5072851;28;20048;-70
2022/01/27 08:07:08;;;;;;;52.42;29.73;;;;;;;5.00;53.09;101029.91;5064889;28;20072;-70
2022/01/27 08:09:34;;;;;;;58.05;29.50;;;;;;;4.98;52.63;101024.72;5052584;28;20056;-71
2022/01/27 08:12:01;;;;;;;55.80;31.38;;;;;;;4.75;53.14;101022.94;5055641;28;20076;-70
2022/01/27 08:14:28;;;;;;;64.18;30.58;;;;;;;4.59;53.33;101020.59;5054908;28;20095;-69
2022/01/27 08:16:54;;;;;;;59.08;30.50;;;;;;;4.85;52.71;101012.47;5061197;28;20076;-69
2022/01/27 08:19:21;;;;;;;57.95;29.08;;;;;;;4.87;52.55;101013.19;5054263;28;20058;-70
2022/01/27 08:21:47;;;;;;;53.80;28.38;;;;;;;4.56;53.23;100999.56;5071015;28;20064;-69
2022/01/27 08:24:15;;;;;;;54.22;27.83;;;;;;;5.28;51.61;101002.03;5071956;28;20072;-69
2022/01/27 08:26:45;;;;;;;60.85;30.52;;;;;;;4.70;52.72;101007.34;5068131;28;20068;-69
2022/01/27 08:31:54;;;;;;;53.78;29.15;;;;;;;5.06;52.02;100989.56;5059543;28;20501;-69
2022/01/27 08:34:41;;;;;;;58.55;29.23;;;;;;;5.13;51.72;100996.09;5051567;28;20077;-70
2022/01/27 08:37:13;;;;;;;55.95;27.08;;;;;;;4.96;52.40;100989.41;5054875;28;20045;-69
2022/01/27 08:39:40;;;;;;;56.42;28.35;;;;;;;4.64;52.72;100977.72;5051720;28;20139;-70
2022/01/27 08:42:08;;;;;;;52.67;28.17;;;;;;;4.98;52.35;100973.38;5053685;28;20137;-70
2022/01/27 08:44:36;;;;;;;53.13;28.67;;;;;;;4.44;53.64;100980.06;5060466;28;20064;-70
2022/01/27 08:47:05;;;;;;;55.92;28.13;;;;;;;5.32;51.56;100976.91;5059477;28;20059;-70
2022/01/27 08:49:31;;;;;;;55.45;27.88;;;;;;;4.82;52.37;100977.19;5070639;28;20075;-71
2022/01/27 08:51:58;;;;;;;60.72;27.33;;;;;;;4.95;52.24;100965.63;5065485;28;20123;-70
2022/01/27 08:54:26;;;;;;;49.75;26.27;;;;;;;5.09;51.54;100968.06;5051605;28;20464;-70
2022/01/27 08:56:53;;;;;;;51.95;25.65;;;;;;;4.59;52.90;100967.47;5050959;28;20071;-69
2022/01/27 08:59:19;;;;;;;56.78;27.55;;;;;;;4.77;51.70;100958.09;5055686;28;20441;-70
2022/01/27 09:01:46;;;;;;;50.30;26.27;;;;;;;5.04;51.85;100964.91;5052083;28;20124;-70
2022/01/27 09:04:14;;;;;;;51.00;25.60;;;;;;;4.79;52.38;100965.94;5050676;28;20065;-70
2022/01/27 09:06:40;;;;;;;42.80;23.15;;;;;;;5.01;51.67;100962.50;5051784;28;20569;-70
2022/01/27 09:09:07;;;;;;;44.25;23.33;;;;;;;5.03;51.18;100963.22;5050171;28;20437;-70
2022/01/27 09:11:34;;;;;;;44.15;24.55;;;;;;;4.90;51.76;100957.13;5051292;28;20132;-72
2022/01/27 09:14:02;;;;;;;51.28;22.80;;;;;;;4.95;51.88;100947.00;5062900;28;20064;-71
2022/01/27 09:16:29;;;;;;;45.22;22.77;;;;;;;4.92;52.24;100941.94;5071500;28;20045;-72
2022/01/27 09:19:04;;;;;;;48.80;24.15;;;;;;;5.14;51.74;100949.06;5071561;28;20060;-72
2022/01/27 09:21:44;;;;;;;49.40;23.90;;;;;;;4.57;53.29;100937.50;5056137;28;20072;-72
2022/01/27 09:24:15;;;;;;;44.05;22.23;;;;;;;4.84;52.58;100934.53;5076213;28;20925;-72
2022/01/27 09:29:15;;;;;;;43.50;21.60;;;;;;;5.66;50.43;100951.13;5076311;28;20044;-72
2022/01/27 09:31:41;;;;;;;44.90;21.80;;;;;;;5.01;52.01;100951.88;5077055;28;20487;-72
2022/01/27 09:34:11;;;;;;;38.90;21.20;;;;;;;4.95;51.92;100962.97;5075609;28;20052;-71
2022/01/27 09:36:37;;;;;;;41.25;20.40;;;;;;;5.05;52.37;100956.81;5056592;28;20132;-71
2022/01/27 09:39:04;;;;;;;42.33;21.15;;;;;;;4.61;54.05;100959.34;5068279;28;20136;-70
2022/01/27 09:41:35;;;;;;;45.97;22.02;;;;;;;4.97;52.44;100950.38;5070235;28;20044;-72
2022/01/27 09:44:02;;;;;;;37.90;19.92;;;;;;;5.14;52.42;100947.25;5076425;28;20040;-72
2022/01/27 09:46:31;;;;;;;42.17;21.45;;;;;;;4.70;54.15;100951.53;5074618;28;20044;-72
2022/01/27 09:48:58;;;;;;;45.42;20.83;;;;;;;4.80;54.13;100946.38;5046015;28;20477;-72
2022/01/27 09:51:39;;;;;;;43.65;20.70;;;;;;;5.37;52.99;100947.28;5067082;28;20040;-73
2022/01/27 09:54:07;;;;;;;45.50;20.15;;;;;;;4.75;54.95;100948.53;5060827;28;20044;-70
2022/01/27 09:56:34;;;;;;;47.38;22.38;;;;;;;4.69;55.80;100943.66;5055333;28;20079;-72
2022/01/27 09:59:04;;;;;;;50.60;22.00;;;;;;;5.32;54.68;100952.09;5055236;28;20545;-72
2022/01/27 10:01:30;;;;;;;45.60;23.15;;;;;;;4.96;55.62;100946.03;5054851;28;20045;-72
2022/01/27 10:04:06;;;;;;;44.70;22.08;;;;;;;4.79;56.75;100932.22;5054079;28;20128;-73
2022/01/27 10:06:35;;;;;;;48.38;22.27;;;;;;;4.47;57.40;100929.34;5054910;28;20065;-73
2022/01/27 10:09:12;;;;;;;46.00;22.88;;;;;;;4.85;57.60;100932.72;5054741;28;20049;-74
2022/01/27 10:11:39;;;;;;;47.38;22.45;;;;;;;4.70;58.11;100919.66;5054461;28;20128;-72
2022/01/27 10:14:22;;;;;;;47.65;22.42;;;;;;;5.02;57.14;100921.63;5055201;28;20045;-73
2022/01/27 10:16:53;;;;;;;45.30;22.88;;;;;;;4.89;57.03;100926.22;5055492;28;20045;-73
2022/01/27 10:19:20;;;;;;;50.58;23.15;;;;;;;5.16;56.89;100921.41;5054637;28;20048;-72
2022/01/27 10:21:47;;;;;;;48.25;24.23;;;;;;;4.87;57.65;100913.03;5055074;28;20055;-73
2022/01/27 10:24:19;;;;;;;51.65;24.73;;;;;;;4.77;57.88;100915.56;5063026;28;20124;-72
2022/01/27 10:26:54;;;;;;;50.30;23.65;;;;;;;4.77;57.94;100910.25;5069656;28;20462;-72
2022/01/27 10:29:47;;;;;;;44.78;23.67;;;;;;;4.72;58.76;100912.38;5067812;28;20127;-71
2022/01/27 10:32:14;;;;;;;54.15;24.52;;;;;;;4.79;57.75;100910.09;5049627;28;20073;-72
2022/01/27 10:34:54;;;;;;;54.03;24.83;;;;;;;4.64;59.33;100903.34;5054917;28;20061;-70
2022/01/27 10:37:21;;;;;;;51.47;25.67;;;;;;;4.60;59.36;100907.19;5055654;28;20489;-70
2022/01/27 10:39:48;;;;;;;52.90;25.08;;;;;;;4.97;58.20;100899.84;5070302;28;20083;-71
2022/01/27 10:42:21;;;;;;;62.50;26.05;;;;;;;5.04;58.69;100906.41;5068569;28;20045;-70
2022/01/27 10:44:55;;;;;;;54.65;25.50;;;;;;;4.98;57.94;100897.09;5075136;28;20036;-70
2022/01/27 10:47:29;;;;;;;58.78;26.40;;;;;;;4.69;59.38;100903.81;5075207;28;20060;-72
2022/01/27 10:50:02;;;;;;;54.78;26.08;;;;;;;5.23;57.98;100880.06;5075136;28;20045;-72
2022/01/27 10:52:38;;;;;;;62.30;26.65;;;;;;;4.96;58.61;100879.56;5073023;28;20071;-72
2022/01/27 10:55:11;;;;;;;60.65;27.27;;;;;;;4.92;58.36;100886.09;5073295;28;20087;-73
2022/01/27 10:57:38;;;;;;;62.33;26.27;;;;;;;5.05;58.92;100886.84;5072183;28;20044;-73
2022/01/27 11:00:16;;;;;;;52.63;26.98;;;;;;;4.98;59.23;100875.00;5074462;28;20082;-72
2022/01/27 11:02:58;;;;;;;59.75;26.60;;;;;;;4.73;59.48;100884.03;5055918;28;20051;-72
2022/01/27 11:05:28;;;;;;;60.38;27.55;;;;;;;4.66;59.98;100881.00;5073692;28;20044;-71
2022/01/27 11:07:55;;;;;;;56.95;26.65;;;;;;;4.97;58.81;100865.28;5074110;28;20075;-72
2022/01/27 11:10:26;;;;;;;62.15;27.60;;;;;;;4.75;59.97;100863.47;5074563;28;20469;-71
2022/01/27 11:12:53;;;;;;;53.20;25.13;;;;;;;4.96;59.24;100858.28;5051004;28;20501;-70
2022/01/27 11:15:20;;;;;;;53.55;26.02;;;;;;;4.97;59.29;100858.19;5062193;28;20063;-71
2022/01/27 11:17:49;;;;;;;54.75;26.17;;;;;;;5.08;59.40;100852.03;5067404;28;20052;-71
2022/01/27 11:20:51;;;;;;;58.15;26.30;;;;;;;4.91;59.69;100852.50;5073503;28;20534;-70
2022/01/27 11:23:47;;;;;;;61.05;26.00;;;;;;;5.55;58.20;100839.38;5073599;28;20072;-70
2022/01/27 11:26:13;;;;;;;60.33;27.20;;;;;;;4.65;60.93;100834.09;5072765;28;20089;-70
2022/01/27 11:28:45;;;;;;;56.72;25.85;;;;;;;4.84;60.77;100838.84;5073389;28;20064;-70
2022/01/27 11:31:23;;;;;;;59.80;26.85;;;;;;;4.82;60.78;100836.28;5070194;28;20048;-70
2022/01/27 11:34:01;;;;;;;53.85;25.30;;;;;;;5.11;59.88;100830.50;5068794;28;20118;-70
2022/01/27 11:36:29;;;;;;;55.83;25.45;;;;;;;5.34;59.67;100817.16;5074218;28;20044;-70
2022/01/27 11:38:58;;;;;;;54.80;25.15;;;;;;;4.64;61.18;100824.44;5073992;28;20041;-70
2022/01/27 11:41:45;;;;;;;52.67;24.85;;;;;;;5.00;60.56;100825.19;5064661;28;20135;-70
2022/01/27 11:44:29;;;;;;;47.28;23.30;;;;;;;4.95;60.40;100822.91;5063562;28;20100;-73
2022/01/27 11:47:11;;;;;;;47.20;23.15;;;;;;;4.66;61.44;100822.53;5052279;28;20041;-72
2022/01/27 11:50:22;;;;;;;43.00;22.35;;;;;;;5.17;60.08;100818.53;5073689;28;20051;-71
2022/01/27 11:52:52;;;;;;;55.28;25.67;;;;;;;4.89;60.66;100820.72;5074010;28;20048;-71
2022/01/27 11:55:24;;;;;;;53.60;24.95;;;;;;;5.13;60.08;100820.56;5039534;28;20489;-73
2022/01/27 11:57:54;;;;;;;50.80;23.92;;;;;;;4.82;60.96;100809.72;5054272;28;20481;-72
2022/01/27 12:00:24;;;;;;;54.78;25.40;;;;;;;5.34;59.50;100809.19;5054048;28;20132;-72
2022/01/27 12:02:56;;;;;;;55.15;25.60;;;;;;;5.07;60.13;100802.44;5053403;28;20080;-72